sensor_id;sensor_type;location;lat;lon;timestamp;P1;durP1;ratioP1;P2;durP2;ratioP2
20855;SDS011;63058;49.424;8.420;2022-10-16T00:02:10;1.83;;;0.85;;
20855;SDS011;63058;49.424;8.420;2022-10-16T00:04:43;2.08;;;0.82;;
20855;SDS011;63058;49.424;8.420;2022-10-16T00:07:08;1.33;;;0.73;;
20855;SDS011;63058;49.424;8.420;2022-10-16T00:09:36;0.68;;;0.63;;
20855;SDS011;63058;49.424;8.420;2022-10-16T00:12:21;3.38;;;0.70;;
20855;SDS011;63058;49.424;8.420;2022-10-16T00:14:47;1.10;;;0.70;;
20855;SDS011;63058;49.424;8.420;2022-10-16T00:17:13;0.90;;;0.77;;
20855;SDS011;63058;49.424;8.420;2022-10-16T00:19:39;0.80;;;0.70;;
20855;SDS011;63058;49.424;8.420;2022-10-16T00:22:11;1.35;;;0.85;;
20855;SDS011;63058;49.424;8.420;2022-10-16T00:24:48;2.20;;;0.82;;
20855;SDS011;63058;49.424;8.420;2022-10-16T00:27:17;4.07;;;0.77;;
20855;SDS011;63058;49.424;8.420;2022-10-16T00:30:07;1.30;;;0.70;;
20855;SDS011;63058;49.424;8.420;2022-10-16T00:32:39;0.90;;;0.65;;
20855;SDS011;63058;49.424;8.420;2022-10-16T00:35:14;1.13;;;0.80;;
20855;SDS011;63058;49.424;8.420;2022-10-16T00:37:44;1.20;;;0.70;;
20855;SDS011;63058;49.424;8.420;2022-10-16T00:40:18;1.13;;;0.80;;
20855;SDS011;63058;49.424;8.420;2022-10-16T00:42:50;0.98;;;0.70;;
20855;SDS011;63058;49.424;8.420;2022-10-16T00:45:20;0.82;;;0.77;;
20855;SDS011;63058;49.424;8.420;2022-10-16T00:47:52;1.02;;;0.63;;
20855;SDS011;63058;49.424;8.420;2022-10-16T00:50:30;0.98;;;0.70;;
20855;SDS011;63058;49.424;8.420;2022-10-16T00:53:00;1.65;;;0.68;;
20855;SDS011;63058;49.424;8.420;2022-10-16T00:55:29;0.85;;;0.80;;
20855;SDS011;63058;49.424;8.420;2022-10-16T00:58:01;1.80;;;0.82;;
20855;SDS011;63058;49.424;8.420;2022-10-16T01:00:27;0.80;;;0.68;;
20855;SDS011;63058;49.424;8.420;2022-10-16T01:02:55;2.88;;;0.80;;
20855;SDS011;63058;49.424;8.420;2022-10-16T01:06:01;2.53;;;0.73;;
20855;SDS011;63058;49.424;8.420;2022-10-16T01:09:07;1.10;;;0.63;;
20855;SDS011;63058;49.424;8.420;2022-10-16T01:15:25;1.83;;;0.80;;
20855;SDS011;63058;49.424;8.420;2022-10-16T01:18:22;1.60;;;0.70;;
20855;SDS011;63058;49.424;8.420;2022-10-16T01:21:18;0.80;;;0.80;;
20855;SDS011;63058;49.424;8.420;2022-10-16T01:32:55;0.95;;;0.75;;
20855;SDS011;63058;49.424;8.420;2022-10-16T01:35:28;0.75;;;0.70;;
20855;SDS011;63058;49.424;8.420;2022-10-16T01:38:07;1.02;;;0.70;;
20855;SDS011;63058;49.424;8.420;2022-10-16T01:40:36;1.00;;;0.90;;
20855;SDS011;63058;49.424;8.420;2022-10-16T01:43:15;2.30;;;0.98;;
20855;SDS011;63058;49.424;8.420;2022-10-16T01:46:15;0.90;;;0.80;;
20855;SDS011;63058;49.424;8.420;2022-10-16T01:48:49;0.85;;;0.75;;
20855;SDS011;63058;49.424;8.420;2022-10-16T01:51:20;1.67;;;0.77;;
20855;SDS011;63058;49.424;8.420;2022-10-16T01:53:53;2.50;;;0.70;;
20855;SDS011;63058;49.424;8.420;2022-10-16T01:56:22;1.90;;;0.90;;
20855;SDS011;63058;49.424;8.420;2022-10-16T01:59:00;1.65;;;1.27;;
20855;SDS011;63058;49.424;8.420;2022-10-16T02:01:32;1.63;;;1.10;;
20855;SDS011;63058;49.424;8.420;2022-10-16T02:04:38;1.58;;;1.10;;
20855;SDS011;63058;49.424;8.420;2022-10-16T02:07:10;1.60;;;0.80;;
20855;SDS011;63058;49.424;8.420;2022-10-16T02:09:40;1.25;;;0.90;;
20855;SDS011;63058;49.424;8.420;2022-10-16T02:12:12;1.83;;;1.15;;
20855;SDS011;63058;49.424;8.420;2022-10-16T02:14:52;2.75;;;0.85;;
20855;SDS011;63058;49.424;8.420;2022-10-16T02:17:19;0.77;;;0.75;;
20855;SDS011;63058;49.424;8.420;2022-10-16T02:19:53;1.35;;;0.90;;
20855;SDS011;63058;49.424;8.420;2022-10-16T02:22:40;1.00;;;0.82;;
20855;SDS011;63058;49.424;8.420;2022-10-16T02:25:15;1.00;;;0.88;;
20855;SDS011;63058;49.424;8.420;2022-10-16T02:30:58;1.77;;;1.00;;
20855;SDS011;63058;49.424;8.420;2022-10-16T02:33:35;2.65;;;1.00;;
20855;SDS011;63058;49.424;8.420;2022-10-16T02:36:14;1.38;;;0.90;;
20855;SDS011;63058;49.424;8.420;2022-10-16T02:38:48;1.27;;;0.95;;
20855;SDS011;63058;49.424;8.420;2022-10-16T02:41:18;1.27;;;1.17;;
20855;SDS011;63058;49.424;8.420;2022-10-16T02:43:51;6.03;;;1.58;;
20855;SDS011;63058;49.424;8.420;2022-10-16T02:46:21;1.73;;;1.10;;
20855;SDS011;63058;49.424;8.420;2022-10-16T02:49:00;2.20;;;1.13;;
20855;SDS011;63058;49.424;8.420;2022-10-16T02:51:46;2.08;;;1.25;;
20855;SDS011;63058;49.424;8.420;2022-10-16T02:54:13;2.05;;;1.10;;
20855;SDS011;63058;49.424;8.420;2022-10-16T02:56:39;1.70;;;1.00;;
20855;SDS011;63058;49.424;8.420;2022-10-16T02:59:11;1.67;;;1.02;;
20855;SDS011;63058;49.424;8.420;2022-10-16T03:01:44;4.15;;;1.10;;
20855;SDS011;63058;49.424;8.420;2022-10-16T03:04:10;2.03;;;1.00;;
20855;SDS011;63058;49.424;8.420;2022-10-16T03:06:35;1.75;;;0.98;;
20855;SDS011;63058;49.424;8.420;2022-10-16T03:09:07;1.10;;;1.00;;
20855;SDS011;63058;49.424;8.420;2022-10-16T03:11:33;2.42;;;1.05;;
20855;SDS011;63058;49.424;8.420;2022-10-16T03:14:02;1.10;;;0.93;;
20855;SDS011;63058;49.424;8.420;2022-10-16T03:16:34;1.00;;;0.90;;
20855;SDS011;63058;49.424;8.420;2022-10-16T03:19:06;1.42;;;0.93;;
20855;SDS011;63058;49.424;8.420;2022-10-16T03:21:34;1.13;;;1.00;;
20855;SDS011;63058;49.424;8.420;2022-10-16T03:24:05;1.75;;;1.00;;
20855;SDS011;63058;49.424;8.420;2022-10-16T03:26:34;1.55;;;0.93;;
20855;SDS011;63058;49.424;8.420;2022-10-16T03:29:03;1.50;;;1.10;;
20855;SDS011;63058;49.424;8.420;2022-10-16T03:31:32;1.35;;;1.08;;
20855;SDS011;63058;49.424;8.420;2022-10-16T03:34:01;1.10;;;1.00;;
20855;SDS011;63058;49.424;8.420;2022-10-16T03:36:27;1.42;;;1.00;;
20855;SDS011;63058;49.424;8.420;2022-10-16T03:38:54;1.48;;;0.95;;
20855;SDS011;63058;49.424;8.420;2022-10-16T03:41:24;1.48;;;0.90;;
20855;SDS011;63058;49.424;8.420;2022-10-16T03:43:50;1.63;;;0.88;;
20855;SDS011;63058;49.424;8.420;2022-10-16T03:46:20;1.33;;;1.10;;
20855;SDS011;63058;49.424;8.420;2022-10-16T03:48:49;2.03;;;1.20;;
20855;SDS011;63058;49.424;8.420;2022-10-16T03:51:19;1.30;;;1.20;;
20855;SDS011;63058;49.424;8.420;2022-10-16T03:53:50;1.17;;;0.95;;
20855;SDS011;63058;49.424;8.420;2022-10-16T03:56:31;1.58;;;1.17;;
20855;SDS011;63058;49.424;8.420;2022-10-16T03:59:04;1.65;;;1.10;;
20855;SDS011;63058;49.424;8.420;2022-10-16T04:01:46;1.95;;;1.20;;
20855;SDS011;63058;49.424;8.420;2022-10-16T04:04:12;1.10;;;1.00;;
20855;SDS011;63058;49.424;8.420;2022-10-16T04:06:44;0.88;;;0.88;;
20855;SDS011;63058;49.424;8.420;2022-10-16T04:09:18;3.40;;;1.25;;
20855;SDS011;63058;49.424;8.420;2022-10-16T04:11:50;1.20;;;0.90;;
20855;SDS011;63058;49.424;8.420;2022-10-16T04:14:15;1.00;;;0.88;;
20855;SDS011;63058;49.424;8.420;2022-10-16T04:16:47;0.80;;;0.80;;
20855;SDS011;63058;49.424;8.420;2022-10-16T04:19:15;2.45;;;1.13;;
20855;SDS011;63058;49.424;8.420;2022-10-16T04:21:44;1.92;;;0.95;;
20855;SDS011;63058;49.424;8.420;2022-10-16T04:24:09;1.67;;;1.02;;
20855;SDS011;63058;49.424;8.420;2022-10-16T04:26:36;1.35;;;0.90;;
20855;SDS011;63058;49.424;8.420;2022-10-16T04:29:03;1.33;;;0.80;;
20855;SDS011;63058;49.424;8.420;2022-10-16T04:31:29;0.70;;;0.70;;
20855;SDS011;63058;49.424;8.420;2022-10-16T04:33:57;1.00;;;0.90;;
20855;SDS011;63058;49.424;8.420;2022-10-16T04:36:23;1.50;;;0.90;;
20855;SDS011;63058;49.424;8.420;2022-10-16T04:38:52;0.98;;;0.90;;
20855;SDS011;63058;49.424;8.420;2022-10-16T04:41:27;3.13;;;1.05;;
20855;SDS011;63058;49.424;8.420;2022-10-16T04:43:53;1.35;;;1.00;;
20855;SDS011;63058;49.424;8.420;2022-10-16T04:46:22;2.10;;;1.00;;
20855;SDS011;63058;49.424;8.420;2022-10-16T04:48:49;1.80;;;1.00;;
20855;SDS011;63058;49.424;8.420;2022-10-16T04:51:15;2.13;;;1.00;;
20855;SDS011;63058;49.424;8.420;2022-10-16T04:53:41;2.35;;;1.45;;
20855;SDS011;63058;49.424;8.420;2022-10-16T04:56:07;2.00;;;1.10;;
20855;SDS011;63058;49.424;8.420;2022-10-16T04:58:35;2.38;;;1.00;;
20855;SDS011;63058;49.424;8.420;2022-10-16T05:01:07;1.25;;;1.00;;
20855;SDS011;63058;49.424;8.420;2022-10-16T05:03:33;2.08;;;1.08;;
20855;SDS011;63058;49.424;8.420;2022-10-16T05:06:01;2.55;;;1.20;;
20855;SDS011;63058;49.424;8.420;2022-10-16T05:08:31;1.40;;;1.02;;
20855;SDS011;63058;49.424;8.420;2022-10-16T05:10:58;1.65;;;1.05;;
20855;SDS011;63058;49.424;8.420;2022-10-16T05:13:26;2.35;;;1.20;;
20855;SDS011;63058;49.424;8.420;2022-10-16T05:16:05;2.70;;;1.17;;
20855;SDS011;63058;49.424;8.420;2022-10-16T05:18:32;2.08;;;0.95;;
20855;SDS011;63058;49.424;8.420;2022-10-16T05:21:04;2.88;;;1.35;;
20855;SDS011;63058;49.424;8.420;2022-10-16T05:23:34;3.30;;;1.20;;
20855;SDS011;63058;49.424;8.420;2022-10-16T05:26:03;1.35;;;1.10;;
20855;SDS011;63058;49.424;8.420;2022-10-16T05:28:31;1.88;;;1.10;;
20855;SDS011;63058;49.424;8.420;2022-10-16T05:31:08;1.75;;;1.33;;
20855;SDS011;63058;49.424;8.420;2022-10-16T05:33:37;2.30;;;1.25;;
20855;SDS011;63058;49.424;8.420;2022-10-16T05:36:14;1.70;;;1.15;;
20855;SDS011;63058;49.424;8.420;2022-10-16T05:38:41;2.45;;;1.00;;
20855;SDS011;63058;49.424;8.420;2022-10-16T05:41:06;1.30;;;1.20;;
20855;SDS011;63058;49.424;8.420;2022-10-16T05:43:36;2.40;;;1.17;;
20855;SDS011;63058;49.424;8.420;2022-10-16T05:46:03;1.73;;;1.17;;
20855;SDS011;63058;49.424;8.420;2022-10-16T05:48:33;2.28;;;1.42;;
20855;SDS011;63058;49.424;8.420;2022-10-16T05:51:03;1.63;;;1.17;;
20855;SDS011;63058;49.424;8.420;2022-10-16T05:53:37;1.60;;;1.20;;
20855;SDS011;63058;49.424;8.420;2022-10-16T05:56:04;2.22;;;1.38;;
20855;SDS011;63058;49.424;8.420;2022-10-16T05:58:53;3.40;;;1.50;;
20855;SDS011;63058;49.424;8.420;2022-10-16T06:01:43;1.63;;;1.23;;
20855;SDS011;63058;49.424;8.420;2022-10-16T06:04:29;3.22;;;1.42;;
20855;SDS011;63058;49.424;8.420;2022-10-16T06:07:19;1.77;;;1.20;;
20855;SDS011;63058;49.424;8.420;2022-10-16T06:10:13;2.00;;;1.33;;
20855;SDS011;63058;49.424;8.420;2022-10-16T06:13:02;3.17;;;1.83;;
20855;SDS011;63058;49.424;8.420;2022-10-16T06:15:31;3.22;;;1.50;;
20855;SDS011;63058;49.424;8.420;2022-10-16T06:17:56;2.30;;;1.40;;
20855;SDS011;63058;49.424;8.420;2022-10-16T06:20:38;2.05;;;1.40;;
20855;SDS011;63058;49.424;8.420;2022-10-16T06:23:28;3.08;;;1.40;;
20855;SDS011;63058;49.424;8.420;2022-10-16T06:26:10;3.42;;;1.50;;
20855;SDS011;63058;49.424;8.420;2022-10-16T06:29:26;2.28;;;1.30;;
20855;SDS011;63058;49.424;8.420;2022-10-16T06:34:56;2.35;;;1.35;;
20855;SDS011;63058;49.424;8.420;2022-10-16T06:37:26;1.50;;;1.13;;
20855;SDS011;63058;49.424;8.420;2022-10-16T06:43:00;1.23;;;1.00;;
20855;SDS011;63058;49.424;8.420;2022-10-16T06:45:33;1.90;;;1.20;;
20855;SDS011;63058;49.424;8.420;2022-10-16T06:48:32;1.35;;;0.90;;
20855;SDS011;63058;49.424;8.420;2022-10-16T06:51:18;3.15;;;1.52;;
20855;SDS011;63058;49.424;8.420;2022-10-16T07:01:10;1.65;;;1.17;;
20855;SDS011;63058;49.424;8.420;2022-10-16T07:04:28;2.42;;;1.30;;
20855;SDS011;63058;49.424;8.420;2022-10-16T07:07:18;2.38;;;1.23;;
20855;SDS011;63058;49.424;8.420;2022-10-16T07:19:45;1.80;;;1.20;;
20855;SDS011;63058;49.424;8.420;2022-10-16T07:22:37;2.80;;;1.75;;
20855;SDS011;63058;49.424;8.420;2022-10-16T07:25:29;2.40;;;1.15;;
20855;SDS011;63058;49.424;8.420;2022-10-16T09:15:01;3.50;;;1.13;;
20855;SDS011;63058;49.424;8.420;2022-10-16T09:17:44;2.65;;;1.30;;
20855;SDS011;63058;49.424;8.420;2022-10-16T09:23:43;3.25;;;1.25;;
20855;SDS011;63058;49.424;8.420;2022-10-16T09:26:11;3.50;;;1.38;;
20855;SDS011;63058;49.424;8.420;2022-10-16T09:28:44;4.93;;;1.23;;
20855;SDS011;63058;49.424;8.420;2022-10-16T09:31:13;2.38;;;1.30;;
20855;SDS011;63058;49.424;8.420;2022-10-16T09:34:27;3.08;;;1.40;;
20855;SDS011;63058;49.424;8.420;2022-10-16T09:40:03;4.10;;;1.50;;
20855;SDS011;63058;49.424;8.420;2022-10-16T09:42:34;1.40;;;1.20;;
20855;SDS011;63058;49.424;8.420;2022-10-16T09:45:02;1.98;;;1.05;;
20855;SDS011;63058;49.424;8.420;2022-10-16T09:47:39;3.30;;;1.40;;
20855;SDS011;63058;49.424;8.420;2022-10-16T09:50:26;2.20;;;1.20;;
20855;SDS011;63058;49.424;8.420;2022-10-16T09:53:12;1.27;;;1.17;;
20855;SDS011;63058;49.424;8.420;2022-10-16T09:58:49;1.92;;;1.10;;
20855;SDS011;63058;49.424;8.420;2022-10-16T10:01:19;2.78;;;0.85;;
20855;SDS011;63058;49.424;8.420;2022-10-16T10:03:51;4.57;;;1.20;;
20855;SDS011;63058;49.424;8.420;2022-10-16T10:06:27;2.70;;;1.20;;
20855;SDS011;63058;49.424;8.420;2022-10-16T10:09:00;2.78;;;1.17;;
20855;SDS011;63058;49.424;8.420;2022-10-16T10:11:40;1.55;;;0.95;;
20855;SDS011;63058;49.424;8.420;2022-10-16T10:14:15;2.85;;;1.25;;
20855;SDS011;63058;49.424;8.420;2022-10-16T10:22:53;2.60;;;1.10;;
20855;SDS011;63058;49.424;8.420;2022-10-16T10:36:34;3.97;;;1.00;;
20855;SDS011;63058;49.424;8.420;2022-10-16T10:39:13;2.58;;;1.13;;
20855;SDS011;63058;49.424;8.420;2022-10-16T10:44:52;2.30;;;1.10;;
20855;SDS011;63058;49.424;8.420;2022-10-16T10:47:42;2.50;;;1.00;;
20855;SDS011;63058;49.424;8.420;2022-10-16T10:59:51;1.10;;;1.00;;
20855;SDS011;63058;49.424;8.420;2022-10-16T11:11:19;1.77;;;0.90;;
20855;SDS011;63058;49.424;8.420;2022-10-16T11:14:06;0.73;;;0.73;;
20855;SDS011;63058;49.424;8.420;2022-10-16T11:20:18;1.92;;;0.80;;
20855;SDS011;63058;49.424;8.420;2022-10-16T11:23:17;1.88;;;1.08;;
20855;SDS011;63058;49.424;8.420;2022-10-16T11:26:26;1.10;;;0.73;;
20855;SDS011;63058;49.424;8.420;2022-10-16T11:29:05;1.85;;;0.95;;
20855;SDS011;63058;49.424;8.420;2022-10-16T11:32:01;3.70;;;0.73;;
20855;SDS011;63058;49.424;8.420;2022-10-16T11:34:42;1.40;;;0.98;;
20855;SDS011;63058;49.424;8.420;2022-10-16T11:37:36;1.58;;;0.75;;
20855;SDS011;63058;49.424;8.420;2022-10-16T11:43:19;1.05;;;0.65;;
20855;SDS011;63058;49.424;8.420;2022-10-16T11:46:08;2.97;;;0.80;;
20855;SDS011;63058;49.424;8.420;2022-10-16T11:52:03;1.45;;;0.80;;
20855;SDS011;63058;49.424;8.420;2022-10-16T11:54:37;2.40;;;1.00;;
20855;SDS011;63058;49.424;8.420;2022-10-16T11:57:20;1.40;;;1.02;;
20855;SDS011;63058;49.424;8.420;2022-10-16T12:00:08;1.90;;;1.23;;
20855;SDS011;63058;49.424;8.420;2022-10-16T12:02:56;1.80;;;1.00;;
20855;SDS011;63058;49.424;8.420;2022-10-16T12:08:33;1.83;;;1.17;;
20855;SDS011;63058;49.424;8.420;2022-10-16T12:23:00;1.98;;;1.20;;
20855;SDS011;63058;49.424;8.420;2022-10-16T12:26:15;1.77;;;1.10;;
20855;SDS011;63058;49.424;8.420;2022-10-16T12:29:22;1.75;;;1.05;;
20855;SDS011;63058;49.424;8.420;2022-10-16T12:35:05;1.73;;;1.10;;
20855;SDS011;63058;49.424;8.420;2022-10-16T12:37:48;2.47;;;1.45;;
20855;SDS011;63058;49.424;8.420;2022-10-16T12:43:46;2.33;;;1.25;;
20855;SDS011;63058;49.424;8.420;2022-10-16T12:48:39;2.10;;;1.42;;
20855;SDS011;63058;49.424;8.420;2022-10-16T12:54:35;1.70;;;1.33;;
20855;SDS011;63058;49.424;8.420;2022-10-16T12:57:09;4.97;;;1.13;;
20855;SDS011;63058;49.424;8.420;2022-10-16T13:06:14;2.40;;;1.60;;
20855;SDS011;63058;49.424;8.420;2022-10-16T13:24:50;2.50;;;1.15;;
20855;SDS011;63058;49.424;8.420;2022-10-16T13:30:42;1.88;;;1.20;;
20855;SDS011;63058;49.424;8.420;2022-10-16T13:33:41;4.03;;;0.95;;
20855;SDS011;63058;49.424;8.420;2022-10-16T13:36:27;3.20;;;1.35;;
20855;SDS011;63058;49.424;8.420;2022-10-16T13:42:11;1.17;;;1.08;;
20855;SDS011;63058;49.424;8.420;2022-10-16T13:44:41;2.13;;;1.20;;
20855;SDS011;63058;49.424;8.420;2022-10-16T13:47:20;3.05;;;1.15;;
20855;SDS011;63058;49.424;8.420;2022-10-16T13:50:12;1.83;;;1.30;;
20855;SDS011;63058;49.424;8.420;2022-10-16T13:52:48;1.73;;;1.20;;
20855;SDS011;63058;49.424;8.420;2022-10-16T13:55:18;1.90;;;1.30;;
20855;SDS011;63058;49.424;8.420;2022-10-16T13:58:12;1.75;;;1.10;;
20855;SDS011;63058;49.424;8.420;2022-10-16T14:00:41;1.40;;;1.30;;
20855;SDS011;63058;49.424;8.420;2022-10-16T14:03:22;2.00;;;1.35;;
20855;SDS011;63058;49.424;8.420;2022-10-16T14:05:52;3.55;;;1.65;;
20855;SDS011;63058;49.424;8.420;2022-10-16T14:08:26;2.03;;;1.33;;
20855;SDS011;63058;49.424;8.420;2022-10-16T14:10:58;3.97;;;1.35;;
20855;SDS011;63058;49.424;8.420;2022-10-16T14:13:37;2.70;;;1.33;;
20855;SDS011;63058;49.424;8.420;2022-10-16T14:16:11;2.22;;;1.40;;
20855;SDS011;63058;49.424;8.420;2022-10-16T14:19:24;1.90;;;1.08;;
20855;SDS011;63058;49.424;8.420;2022-10-16T14:32:39;3.58;;;1.95;;
20855;SDS011;63058;49.424;8.420;2022-10-16T14:35:22;2.63;;;1.98;;
20855;SDS011;63058;49.424;8.420;2022-10-16T14:37:53;2.72;;;1.83;;
20855;SDS011;63058;49.424;8.420;2022-10-16T14:40:21;2.30;;;1.63;;
20855;SDS011;63058;49.424;8.420;2022-10-16T14:42:53;3.10;;;1.88;;
20855;SDS011;63058;49.424;8.420;2022-10-16T14:45:23;3.53;;;2.38;;
20855;SDS011;63058;49.424;8.420;2022-10-16T14:47:52;2.20;;;1.77;;
20855;SDS011;63058;49.424;8.420;2022-10-16T14:50:20;3.30;;;1.63;;
20855;SDS011;63058;49.424;8.420;2022-10-16T14:52:46;1.50;;;1.40;;
20855;SDS011;63058;49.424;8.420;2022-10-16T14:55:12;2.97;;;1.60;;
20855;SDS011;63058;49.424;8.420;2022-10-16T14:57:38;1.98;;;1.30;;
20855;SDS011;63058;49.424;8.420;2022-10-16T15:00:23;4.50;;;2.03;;
20855;SDS011;63058;49.424;8.420;2022-10-16T15:02:49;3.47;;;1.98;;
20855;SDS011;63058;49.424;8.420;2022-10-16T15:07:44;2.13;;;1.65;;
20855;SDS011;63058;49.424;8.420;2022-10-16T15:10:10;2.70;;;1.70;;
20855;SDS011;63058;49.424;8.420;2022-10-16T15:12:37;1.90;;;1.50;;
20855;SDS011;63058;49.424;8.420;2022-10-16T15:15:23;4.70;;;1.50;;
20855;SDS011;63058;49.424;8.420;2022-10-16T15:17:48;4.25;;;1.40;;
20855;SDS011;63058;49.424;8.420;2022-10-16T15:20:20;4.80;;;1.60;;
20855;SDS011;63058;49.424;8.420;2022-10-16T15:22:46;3.05;;;1.33;;
20855;SDS011;63058;49.424;8.420;2022-10-16T15:25:23;1.30;;;1.20;;
20855;SDS011;63058;49.424;8.420;2022-10-16T15:27:57;2.08;;;1.40;;
20855;SDS011;63058;49.424;8.420;2022-10-16T15:30:24;1.73;;;1.48;;
20855;SDS011;63058;49.424;8.420;2022-10-16T15:32:50;3.22;;;1.42;;
20855;SDS011;63058;49.424;8.420;2022-10-16T15:35:16;1.73;;;1.20;;
20855;SDS011;63058;49.424;8.420;2022-10-16T15:37:42;4.25;;;1.48;;
20855;SDS011;63058;49.424;8.420;2022-10-16T15:40:09;2.72;;;1.30;;
20855;SDS011;63058;49.424;8.420;2022-10-16T15:42:41;2.47;;;1.60;;
20855;SDS011;63058;49.424;8.420;2022-10-16T15:45:08;3.60;;;1.65;;
20855;SDS011;63058;49.424;8.420;2022-10-16T15:47:37;4.38;;;1.70;;
20855;SDS011;63058;49.424;8.420;2022-10-16T15:50:04;1.92;;;1.60;;
20855;SDS011;63058;49.424;8.420;2022-10-16T15:52:30;2.88;;;1.45;;
20855;SDS011;63058;49.424;8.420;2022-10-16T15:54:57;2.67;;;1.60;;
20855;SDS011;63058;49.424;8.420;2022-10-16T15:57:23;2.42;;;1.55;;
20855;SDS011;63058;49.424;8.420;2022-10-16T15:59:49;1.70;;;1.40;;
20855;SDS011;63058;49.424;8.420;2022-10-16T16:02:15;1.88;;;1.63;;
20855;SDS011;63058;49.424;8.420;2022-10-16T16:08:42;3.80;;;2.88;;
20855;SDS011;63058;49.424;8.420;2022-10-16T16:21:06;8.20;;;4.43;;
20855;SDS011;63058;49.424;8.420;2022-10-16T16:23:31;8.27;;;4.43;;
20855;SDS011;63058;49.424;8.420;2022-10-16T16:26:04;5.18;;;3.33;;
20855;SDS011;63058;49.424;8.420;2022-10-16T16:28:39;4.43;;;2.83;;
20855;SDS011;63058;49.424;8.420;2022-10-16T16:31:06;3.85;;;2.75;;
20855;SDS011;63058;49.424;8.420;2022-10-16T16:33:32;4.28;;;3.10;;
20855;SDS011;63058;49.424;8.420;2022-10-16T16:35:59;3.67;;;2.70;;
20855;SDS011;63058;49.424;8.420;2022-10-16T16:38:27;4.15;;;3.00;;
20855;SDS011;63058;49.424;8.420;2022-10-16T16:40:53;5.43;;;2.83;;
20855;SDS011;63058;49.424;8.420;2022-10-16T16:43:21;3.35;;;2.22;;
20855;SDS011;63058;49.424;8.420;2022-10-16T16:45:48;2.97;;;2.45;;
20855;SDS011;63058;49.424;8.420;2022-10-16T16:48:13;3.53;;;2.80;;
20855;SDS011;63058;49.424;8.420;2022-10-16T16:50:40;3.83;;;2.75;;
20855;SDS011;63058;49.424;8.420;2022-10-16T16:53:06;5.07;;;3.25;;
20855;SDS011;63058;49.424;8.420;2022-10-16T16:55:33;5.03;;;2.67;;
20855;SDS011;63058;49.424;8.420;2022-10-16T16:57:58;6.60;;;3.10;;
20855;SDS011;63058;49.424;8.420;2022-10-16T17:00:25;4.10;;;3.20;;
20855;SDS011;63058;49.424;8.420;2022-10-16T17:02:51;5.68;;;3.53;;
20855;SDS011;63058;49.424;8.420;2022-10-16T17:05:18;5.15;;;3.30;;
20855;SDS011;63058;49.424;8.420;2022-10-16T17:07:44;4.47;;;3.42;;
20855;SDS011;63058;49.424;8.420;2022-10-16T17:10:09;6.47;;;3.67;;
20855;SDS011;63058;49.424;8.420;2022-10-16T17:12:35;5.35;;;4.32;;
20855;SDS011;63058;49.424;8.420;2022-10-16T17:15:04;5.22;;;3.92;;
20855;SDS011;63058;49.424;8.420;2022-10-16T17:17:29;5.13;;;3.95;;
20855;SDS011;63058;49.424;8.420;2022-10-16T17:19:55;5.43;;;3.95;;
20855;SDS011;63058;49.424;8.420;2022-10-16T17:22:22;5.30;;;4.18;;
20855;SDS011;63058;49.424;8.420;2022-10-16T17:24:48;8.93;;;4.57;;
20855;SDS011;63058;49.424;8.420;2022-10-16T17:27:16;5.45;;;4.03;;
20855;SDS011;63058;49.424;8.420;2022-10-16T17:29:42;5.90;;;4.47;;
20855;SDS011;63058;49.424;8.420;2022-10-16T17:32:09;6.13;;;4.72;;
20855;SDS011;63058;49.424;8.420;2022-10-16T17:34:36;10.50;;;5.50;;
20855;SDS011;63058;49.424;8.420;2022-10-16T17:37:02;6.00;;;4.53;;
20855;SDS011;63058;49.424;8.420;2022-10-16T17:39:28;7.45;;;6.03;;
20855;SDS011;63058;49.424;8.420;2022-10-16T17:41:55;7.78;;;5.88;;
20855;SDS011;63058;49.424;8.420;2022-10-16T17:44:21;8.50;;;5.95;;
20855;SDS011;63058;49.424;8.420;2022-10-16T17:46:48;9.23;;;6.35;;
20855;SDS011;63058;49.424;8.420;2022-10-16T17:49:15;6.93;;;5.43;;
20855;SDS011;63058;49.424;8.420;2022-10-16T17:51:41;7.70;;;5.90;;
20855;SDS011;63058;49.424;8.420;2022-10-16T17:54:07;11.95;;;6.63;;
20855;SDS011;63058;49.424;8.420;2022-10-16T17:56:33;9.50;;;7.25;;
20855;SDS011;63058;49.424;8.420;2022-10-16T17:59:00;10.27;;;6.93;;
20855;SDS011;63058;49.424;8.420;2022-10-16T18:01:28;10.50;;;6.82;;
20855;SDS011;63058;49.424;8.420;2022-10-16T18:03:57;10.35;;;6.20;;
20855;SDS011;63058;49.424;8.420;2022-10-16T18:06:25;8.75;;;5.68;;
20855;SDS011;63058;49.424;8.420;2022-10-16T18:08:52;9.30;;;6.25;;
20855;SDS011;63058;49.424;8.420;2022-10-16T18:11:19;10.57;;;7.47;;
20855;SDS011;63058;49.424;8.420;2022-10-16T18:13:46;10.20;;;6.68;;
20855;SDS011;63058;49.424;8.420;2022-10-16T18:16:12;10.93;;;6.85;;
20855;SDS011;63058;49.424;8.420;2022-10-16T18:18:40;9.02;;;6.55;;
20855;SDS011;63058;49.424;8.420;2022-10-16T18:21:08;7.78;;;5.55;;
20855;SDS011;63058;49.424;8.420;2022-10-16T18:23:36;10.82;;;4.88;;
20855;SDS011;63058;49.424;8.420;2022-10-16T18:26:03;4.90;;;3.90;;
20855;SDS011;63058;49.424;8.420;2022-10-16T18:28:33;6.80;;;4.07;;
20855;SDS011;63058;49.424;8.420;2022-10-16T18:31:03;4.88;;;3.92;;
20855;SDS011;63058;49.424;8.420;2022-10-16T18:33:32;4.45;;;3.85;;
20855;SDS011;63058;49.424;8.420;2022-10-16T18:36:02;10.50;;;3.60;;
20855;SDS011;63058;49.424;8.420;2022-10-16T18:38:29;3.97;;;3.35;;
20855;SDS011;63058;49.424;8.420;2022-10-16T18:40:56;4.20;;;3.60;;
20855;SDS011;63058;49.424;8.420;2022-10-16T18:43:22;5.40;;;3.67;;
20855;SDS011;63058;49.424;8.420;2022-10-16T18:45:57;5.10;;;3.60;;
20855;SDS011;63058;49.424;8.420;2022-10-16T18:48:28;4.82;;;3.50;;
20855;SDS011;63058;49.424;8.420;2022-10-16T18:51:04;5.45;;;3.53;;
20855;SDS011;63058;49.424;8.420;2022-10-16T18:53:36;4.55;;;3.38;;
20855;SDS011;63058;49.424;8.420;2022-10-16T18:56:03;5.57;;;3.50;;
20855;SDS011;63058;49.424;8.420;2022-10-16T18:58:29;5.75;;;3.40;;
20855;SDS011;63058;49.424;8.420;2022-10-16T19:00:55;4.15;;;3.15;;
20855;SDS011;63058;49.424;8.420;2022-10-16T19:03:20;6.55;;;3.95;;
20855;SDS011;63058;49.424;8.420;2022-10-16T19:05:46;7.25;;;3.78;;
20855;SDS011;63058;49.424;8.420;2022-10-16T19:08:13;4.53;;;3.30;;
20855;SDS011;63058;49.424;8.420;2022-10-16T19:10:39;4.63;;;3.25;;
20855;SDS011;63058;49.424;8.420;2022-10-16T19:13:07;4.65;;;3.20;;
20855;SDS011;63058;49.424;8.420;2022-10-16T19:15:39;5.10;;;3.10;;
20855;SDS011;63058;49.424;8.420;2022-10-16T19:18:07;4.47;;;2.95;;
20855;SDS011;63058;49.424;8.420;2022-10-16T19:20:33;7.47;;;3.63;;
20855;SDS011;63058;49.424;8.420;2022-10-16T19:22:59;5.20;;;3.33;;
20855;SDS011;63058;49.424;8.420;2022-10-16T19:25:24;4.18;;;2.85;;
20855;SDS011;63058;49.424;8.420;2022-10-16T19:27:52;6.80;;;2.83;;
20855;SDS011;63058;49.424;8.420;2022-10-16T19:30:18;4.25;;;2.92;;
20855;SDS011;63058;49.424;8.420;2022-10-16T19:32:45;8.55;;;3.47;;
20855;SDS011;63058;49.424;8.420;2022-10-16T19:35:13;6.57;;;3.28;;
20855;SDS011;63058;49.424;8.420;2022-10-16T19:37:39;4.32;;;3.03;;
20855;SDS011;63058;49.424;8.420;2022-10-16T19:40:05;4.45;;;2.95;;
20855;SDS011;63058;49.424;8.420;2022-10-16T19:42:31;4.45;;;2.80;;
20855;SDS011;63058;49.424;8.420;2022-10-16T19:45:00;5.38;;;2.83;;
20855;SDS011;63058;49.424;8.420;2022-10-16T19:47:25;4.88;;;2.80;;
20855;SDS011;63058;49.424;8.420;2022-10-16T19:49:51;5.63;;;2.58;;
20855;SDS011;63058;49.424;8.420;2022-10-16T19:52:17;3.72;;;2.55;;
20855;SDS011;63058;49.424;8.420;2022-10-16T19:54:42;3.15;;;2.15;;
20855;SDS011;63058;49.424;8.420;2022-10-16T19:57:08;3.25;;;2.42;;
20855;SDS011;63058;49.424;8.420;2022-10-16T19:59:34;5.22;;;2.47;;
20855;SDS011;63058;49.424;8.420;2022-10-16T20:01:59;2.78;;;2.08;;
20855;SDS011;63058;49.424;8.420;2022-10-16T20:04:25;2.75;;;2.50;;
20855;SDS011;63058;49.424;8.420;2022-10-16T20:06:51;5.22;;;2.53;;
20855;SDS011;63058;49.424;8.420;2022-10-16T20:09:17;2.75;;;2.47;;
20855;SDS011;63058;49.424;8.420;2022-10-16T20:11:44;3.30;;;1.92;;